Time;durP1;ratioP1;P1;durP2;ratioP2;P2;SDS_P1;SDS_P2;PMS_P1;PMS_P2;Temp;Humidity;BMP_temperature;BMP_pressure;BME280_temperature;BME280_humidity;BME280_pressure;Samples;Min_cycle;Max_cycle;Signal;HPM_P1;HPM_P2
2022/07/24 00:00:16;;;;;;;11.73;6.15;;;15.30;99.90;;;;;;6221865;23;20073;-89
2022/07/24 00:02:44;;;;;;;12.70;6.63;;;15.30;99.90;;;;;;6247775;23;20016;-89
2022/07/24 00:05:25;;;;;;;12.80;6.72;;;16.20;99.90;;;;;;6222725;23;20452;-90
2022/07/24 00:07:51;;;;;;;12.60;6.40;;;15.80;99.90;;;;;;6221714;23;20016;-89
2022/07/24 00:10:17;;;;;;;11.80;6.57;;;15.60;99.90;;;;;;6248569;23;20419;-89
2022/07/24 00:12:57;;;;;;;10.85;6.50;;;15.70;99.90;;;;;;6222519;23;20058;-89
2022/07/24 00:15:23;;;;;;;11.68;7.53;;;15.20;99.90;;;;;;6223091;23;20074;-89
2022/07/24 00:17:49;;;;;;;13.00;7.85;;;16.00;99.90;;;;;;6249348;23;20016;-90
2022/07/24 00:20:14;;;;;;;15.13;8.25;;;15.60;99.90;;;;;;6250504;23;20066;-89
2022/07/24 00:22:55;;;;;;;15.25;9.32;;;15.60;99.90;;;;;;6249705;23;20023;-89
2022/07/24 00:25:21;;;;;;;13.75;8.57;;;15.20;99.90;;;;;;6223552;23;20052;-89
2022/07/24 00:27:46;;;;;;;13.85;8.98;;;15.50;99.90;;;;;;6250156;23;20066;-89
2022/07/24 00:30:30;;;;;;;14.65;8.45;;;15.00;99.90;;;;;;6249593;23;20023;-89
2022/07/24 00:32:56;;;;;;;14.25;8.60;;;15.50;99.90;;;;;;6250458;23;20039;-89
2022/07/24 00:35:21;;;;;;;14.57;9.60;;;15.50;99.90;;;;;;6245967;22;20056;-89
2022/07/24 00:37:47;;;;;;;15.38;8.75;;;15.00;99.90;;;;;;6232381;23;20449;-89
2022/07/24 00:40:27;;;;;;;13.80;9.07;;;14.10;99.90;;;;;;6222227;23;20012;-89
2022/07/24 00:42:53;;;;;;;14.18;8.35;;;15.80;99.90;;;;;;6247244;23;20499;-89
2022/07/24 00:45:18;;;;;;;15.77;8.73;;;15.50;99.90;;;;;;6220584;23;20015;-89
2022/07/24 00:47:44;;;;;;;13.40;8.20;;;15.40;99.90;;;;;;6251007;23;20012;-89
2022/07/24 00:50:36;;;;;;;15.52;8.40;;;15.40;99.90;;;;;;6219983;23;20020;-89
2022/07/24 00:53:17;;;;;;;13.20;7.80;;;14.80;99.90;;;;;;6218857;23;20470;-89
2022/07/24 00:55:52;;;;;;;13.25;7.88;;;14.80;99.90;;;;;;6220066;23;20340;-89
2022/07/24 00:58:21;;;;;;;12.55;7.50;;;15.50;99.90;;;;;;6247243;23;20663;-89
2022/07/24 01:00:46;;;;;;;13.88;7.60;;;15.50;99.90;;;;;;6220091;23;20008;-89
2022/07/24 01:03:27;;;;;;;13.32;6.80;;;15.20;99.90;;;;;;6220142;23;20107;-89
2022/07/24 01:05:53;;;;;;;13.02;7.07;;;15.00;99.90;;;;;;6218538;23;20065;-89
2022/07/24 01:08:31;;;;;;;13.75;7.03;;;14.60;99.90;;;;;;6219800;23;20048;-90
2022/07/24 01:10:57;;;;;;;12.85;7.07;;;14.60;99.90;;;;;;6244526;23;20016;-89
2022/07/24 01:13:23;;;;;;;11.18;6.30;;;15.20;99.90;;;;;;6246464;23;20012;-89
2022/07/24 01:16:08;;;;;;;11.75;6.65;;;14.80;99.90;;;;;;6219813;23;20016;-90
2022/07/24 01:18:35;;;;;;;12.27;6.30;;;14.90;99.90;;;;;;6225525;23;20044;-90
2022/07/24 01:21:13;;;;;;;12.10;7.03;;;14.60;99.90;;;;;;6247025;23;20016;-89
2022/07/24 01:23:38;;;;;;;14.00;6.28;;;15.40;99.90;;;;;;6248224;23;20016;-89
2022/07/24 01:26:07;;;;;;;11.15;6.47;;;14.60;99.90;;;;;;6221362;23;20382;-89
2022/07/24 01:28:33;;;;;;;10.75;6.20;;;14.70;99.90;;;;;;6252264;23;20024;-89
2022/07/24 01:31:14;;;;;;;11.93;5.88;;;15.20;99.90;;;;;;6247359;23;20016;-90
2022/07/24 01:33:52;;;;;;;11.43;5.70;;;15.50;99.90;;;;;;6218968;23;20064;-89
2022/07/24 01:36:31;;;;;;;11.20;5.90;;;14.90;99.90;;;;;;6220074;23;20020;-89
2022/07/24 01:39:22;;;;;;;10.15;5.47;;;15.30;99.90;;;;;;6216149;23;20016;-89
2022/07/24 01:41:56;;;;;;;11.95;5.88;;;14.60;99.90;;;;;;6218569;23;20012;-89
2022/07/24 01:44:22;;;;;;;14.27;6.15;;;14.50;99.90;;;;;;6219629;23;20039;-89
2022/07/24 01:47:00;;;;;;;10.57;5.47;;;14.60;99.90;;;;;;6219277;23;20432;-89
2022/07/24 01:49:35;;;;;;;9.73;5.18;;;15.30;99.90;;;;;;6218512;23;20038;-89
2022/07/24 01:52:07;;;;;;;10.88;5.65;;;15.20;99.90;;;;;;6219654;23;20022;-89
2022/07/24 01:54:47;;;;;;;10.57;5.20;;;15.00;99.90;;;;;;6245848;23;20515;-90
2022/07/24 01:57:29;;;;;;;10.32;5.65;;;14.40;99.90;;;;;;6220072;23;20467;-90
2022/07/24 01:59:54;;;;;;;10.75;5.65;;;14.50;99.90;;;;;;6262431;22;20067;-89
2022/07/24 02:02:20;;;;;;;10.23;5.80;;;15.10;99.90;;;;;;6272231;22;20023;-90
2022/07/24 02:04:46;;;;;;;12.48;5.72;;;15.10;99.90;;;;;;6236265;23;20091;-90
2022/07/24 02:07:24;;;;;;;12.10;5.78;;;15.10;99.90;;;;;;6259022;23;20020;-89
2022/07/24 02:09:49;;;;;;;11.23;5.85;;;15.00;99.90;;;;;;6239758;22;20019;-90
2022/07/24 02:12:15;;;;;;;11.10;6.07;;;15.10;99.90;;;;;;6253396;22;20020;-90
2022/07/24 02:14:40;;;;;;;12.23;6.43;;;14.70;99.90;;;;;;6220363;23;20070;-89
2022/07/24 02:17:12;;;;;;;10.95;6.10;;;15.40;99.90;;;;;;6218364;23;20004;-89
2022/07/24 02:19:53;;;;;;;10.05;5.97;;;15.40;99.90;;;;;;6246666;23;20042;-89
2022/07/24 02:22:31;;;;;;;11.77;5.60;;;14.60;99.90;;;;;;6246517;23;20524;-89
2022/07/24 02:25:10;;;;;;;10.63;5.97;;;15.20;99.90;;;;;;6219433;23;20054;-89
2022/07/24 02:27:36;;;;;;;12.70;6.30;;;14.50;99.90;;;;;;6246024;23;20012;-89
2022/07/24 02:30:23;;;;;;;11.02;5.75;;;14.60;99.90;;;;;;6218357;23;20114;-89
2022/07/24 02:32:55;;;;;;;11.50;5.72;;;15.50;99.90;;;;;;6219270;23;20012;-89
2022/07/24 02:35:20;;;;;;;12.05;5.75;;;14.10;99.90;;;;;;6219532;23;20044;-89
2022/07/24 02:37:46;;;;;;;10.02;5.38;;;15.00;99.90;;;;;;6214612;23;20344;-89
2022/07/24 02:40:13;;;;;;;11.18;6.00;;;14.60;99.90;;;;;;6219090;23;20093;-90
2022/07/24 02:42:48;;;;;;;11.07;5.80;;;14.50;99.90;;;;;;6245937;23;20024;-90
2022/07/24 02:45:29;;;;;;;10.10;5.80;;;14.60;99.90;;;;;;6218302;23;20052;-89
2022/07/24 02:48:16;;;;;;;10.57;6.00;;;15.30;99.90;;;;;;6246270;23;20024;-89
2022/07/24 02:50:42;;;;;;;11.75;6.00;;;14.40;99.90;;;;;;6212666;23;20024;-89
2022/07/24 02:53:11;;;;;;;10.85;5.60;;;14.80;99.90;;;;;;6218651;23;20023;-89
2022/07/24 02:55:46;;;;;;;10.10;5.70;;;14.90;99.90;;;;;;6219569;23;20035;-90
2022/07/24 02:58:29;;;;;;;10.38;5.68;;;15.60;99.90;;;;;;6218319;23;20016;-89
2022/07/24 03:00:55;;;;;;;13.73;6.60;;;14.60;99.90;;;;;;6218641;23;20016;-89
2022/07/24 03:03:43;;;;;;;12.55;5.57;;;15.10;99.90;;;;;;6219501;23;20020;-89
2022/07/24 03:06:27;;;;;;;11.15;5.65;;;14.60;99.90;;;;;;6245357;23;20016;-89
2022/07/24 03:08:52;;;;;;;10.60;5.88;;;14.70;99.90;;;;;;6245905;23;20016;-89
2022/07/24 03:11:18;;;;;;;12.23;6.15;;;14.60;99.90;;;;;;6218911;23;20095;-90
2022/07/24 03:13:55;;;;;;;11.50;6.22;;;15.40;99.90;;;;;;6220700;23;20047;-89
2022/07/24 03:16:21;;;;;;;11.60;6.38;;;15.50;99.90;;;;;;6220271;23;20012;-89
2022/07/24 03:18:48;;;;;;;12.10;6.07;;;14.30;99.90;;;;;;6217787;23;20012;-89
2022/07/24 03:21:40;;;;;;;10.60;5.75;;;15.20;99.90;;;;;;6217799;23;20333;-89
2022/07/24 03:24:06;;;;;;;12.30;5.93;;;14.80;99.90;;;;;;6223874;23;20074;-89
2022/07/24 03:26:41;;;;;;;10.85;6.13;;;14.60;99.90;;;;;;6252310;23;20020;-90
2022/07/24 03:29:06;;;;;;;11.57;5.20;;;14.50;99.90;;;;;;6218914;23;20321;-89
2022/07/24 03:31:49;;;;;;;12.55;5.70;;;14.60;99.90;;;;;;6219438;23;20078;-89
2022/07/24 03:34:33;;;;;;;11.07;5.75;;;15.30;99.90;;;;;;6218125;23;20058;-89
2022/07/24 03:36:59;;;;;;;10.63;5.70;;;14.50;99.90;;;;;;6218792;23;20012;-89
2022/07/24 03:39:24;;;;;;;11.85;5.72;;;15.50;99.90;;;;;;6246327;23;20018;-89
2022/07/24 03:41:50;;;;;;;11.95;5.88;;;15.20;99.90;;;;;;6245167;23;20117;-89
2022/07/24 03:44:34;;;;;;;11.13;5.18;;;14.90;99.90;;;;;;6268314;22;20030;-89
2022/07/24 03:46:59;;;;;;;11.25;5.43;;;14.80;99.90;;;;;;6226761;23;20344;-89
2022/07/24 03:49:35;;;;;;;10.23;5.40;;;15.40;99.90;;;;;;6217982;23;20059;-89
2022/07/24 03:52:13;;;;;;;11.95;5.45;;;14.70;99.90;;;;;;6245780;23;20027;-89
2022/07/24 03:54:38;;;;;;;10.35;5.40;;;15.40;99.90;;;;;;6218013;23;20456;-89
2022/07/24 03:57:10;;;;;;;10.43;5.63;;;15.50;99.90;;;;;;6218601;23;20046;-89
2022/07/24 03:59:36;;;;;;;10.40;5.60;;;15.00;99.90;;;;;;6218657;23;20038;-89
2022/07/24 04:02:02;;;;;;;12.02;5.82;;;14.80;99.90;;;;;;6244483;23;20017;-89
2022/07/24 04:04:39;;;;;;;12.07;5.47;;;14.60;99.90;;;;;;6244492;23;20012;-89
2022/07/24 04:07:23;;;;;;;12.65;5.88;;;15.40;99.90;;;;;;6217769;23;20511;-89
2022/07/24 04:09:49;;;;;;;12.25;5.85;;;15.50;99.90;;;;;;6244566;23;20062;-89
2022/07/24 04:12:15;;;;;;;12.02;6.15;;;15.00;99.90;;;;;;6218969;23;20016;-88
2022/07/24 04:14:43;;;;;;;11.02;5.53;;;14.90;99.90;;;;;;6218809;23;20016;-89
2022/07/24 04:17:21;;;;;;;13.57;5.68;;;15.50;99.90;;;;;;6217862;23;20016;-89
2022/07/24 04:19:47;;;;;;;9.90;5.00;;;15.80;99.90;;;;;;6218961;23;20017;-89
2022/07/24 04:22:30;;;;;;;11.43;5.72;;;15.10;99.90;;;;;;6217676;23;20090;-89
2022/07/24 04:24:56;;;;;;;10.02;5.53;;;14.90;99.90;;;;;;6219391;23;20016;-89
2022/07/24 04:27:37;;;;;;;10.27;5.45;;;15.60;99.90;;;;;;6218836;23;20024;-89
2022/07/24 04:30:15;;;;;;;11.30;5.70;;;15.70;99.90;;;;;;6218774;23;20068;-89
2022/07/24 04:32:52;;;;;;;10.68;5.07;;;15.90;99.90;;;;;;6219404;23;20061;-89
2022/07/24 04:35:19;;;;;;;12.20;5.38;;;15.10;99.90;;;;;;6246449;23;20134;-89
2022/07/24 04:37:56;;;;;;;11.32;5.63;;;15.10;99.90;;;;;;6244926;23;20008;-88
2022/07/24 04:40:22;;;;;;;12.00;5.38;;;15.90;99.90;;;;;;6220083;23;20024;-89
2022/07/24 04:42:56;;;;;;;10.95;5.47;;;14.70;99.90;;;;;;6220385;23;20004;-89
2022/07/24 04:45:23;;;;;;;12.20;6.43;;;14.60;99.90;;;;;;6219881;23;20221;-89
2022/07/24 04:48:01;;;;;;;10.95;5.43;;;15.80;99.90;;;;;;6227700;23;20467;-89
2022/07/24 04:50:26;;;;;;;12.50;5.95;;;15.40;99.90;;;;;;6219254;23;20016;-89
2022/07/24 04:52:52;;;;;;;12.80;5.50;;;15.70;99.90;;;;;;6247487;23;20095;-89
2022/07/24 04:55:19;;;;;;;10.65;5.63;;;15.20;99.90;;;;;;6220247;23;20088;-89
2022/07/24 04:57:54;;;;;;;10.90;5.68;;;15.30;99.90;;;;;;6246884;23;20012;-89
2022/07/24 05:00:23;;;;;;;10.75;5.60;;;15.80;99.90;;;;;;6221655;23;20015;-89
2022/07/24 05:02:58;;;;;;;10.43;5.70;;;15.70;99.90;;;;;;6244650;22;20007;-89
2022/07/24 05:05:23;;;;;;;11.30;5.32;;;15.40;99.90;;;;;;6243761;23;20058;-89
2022/07/24 05:08:04;;;;;;;12.55;6.03;;;15.40;99.90;;;;;;6263105;23;20008;-89
2022/07/24 05:10:30;;;;;;;11.30;5.72;;;16.10;99.90;;;;;;6255020;23;20460;-89
2022/07/24 05:12:55;;;;;;;11.13;5.70;;;15.50;99.90;;;;;;6219564;23;20016;-88
2022/07/24 05:15:21;;;;;;;11.63;5.97;;;16.10;99.90;;;;;;6247295;23;20027;-89
2022/07/24 05:17:47;;;;;;;11.43;5.68;;;16.60;99.90;;;;;;6239371;23;20016;-89
2022/07/24 05:20:47;;;;;;;11.52;6.18;;;15.80;99.90;;;;;;6238949;23;20076;-89
2022/07/24 05:23:13;;;;;;;10.80;6.05;;;15.80;99.90;;;;;;6248964;23;20016;-89
2022/07/24 05:25:38;;;;;;;11.07;6.22;;;15.90;99.90;;;;;;6218849;23;20105;-90
2022/07/24 05:28:04;;;;;;;12.20;5.85;;;15.90;99.90;;;;;;6222121;23;20012;-90
2022/07/24 05:30:30;;;;;;;11.70;5.82;;;16.00;99.90;;;;;;6221722;23;20016;-89
2022/07/24 05:32:56;;;;;;;13.38;6.60;;;16.00;99.90;;;;;;6220249;23;20008;-89
2022/07/24 05:35:21;;;;;;;12.23;6.22;;;16.60;99.90;;;;;;6222059;23;20031;-92
2022/07/24 05:37:47;;;;;;;12.25;6.40;;;16.10;99.90;;;;;;6220276;23;20016;-89
2022/07/24 05:40:12;;;;;;;11.70;6.40;;;16.30;99.90;;;;;;6219948;23;20016;-89
2022/07/24 05:42:38;;;;;;;11.52;6.28;;;16.30;99.90;;;;;;6220092;23;20016;-89
2022/07/24 05:45:06;;;;;;;12.43;6.43;;;16.30;99.90;;;;;;6220152;23;20074;-89
2022/07/24 05:47:41;;;;;;;10.60;6.32;;;16.30;99.90;;;;;;6219908;23;20012;-90
2022/07/24 05:50:25;;;;;;;12.55;7.35;;;16.40;99.90;;;;;;6243555;23;20035;-89
2022/07/24 05:53:09;;;;;;;12.82;6.90;;;17.40;99.90;;;;;;6218885;23;20012;-89
2022/07/24 05:55:54;;;;;;;12.30;7.15;;;17.30;99.90;;;;;;6219493;23;20016;-90
2022/07/24 05:58:20;;;;;;;11.95;6.93;;;17.20;99.90;;;;;;6249583;23;20013;-90
2022/07/24 06:01:07;;;;;;;13.65;7.00;;;17.30;99.90;;;;;;6247203;23;20095;-90
2022/07/24 06:03:33;;;;;;;11.82;6.88;;;16.80;99.90;;;;;;6250294;23;20028;-90
2022/07/24 06:06:14;;;;;;;11.65;6.95;;;16.80;99.90;;;;;;6252675;23;20075;-90
2022/07/24 06:08:57;;;;;;;14.23;7.20;;;17.50;99.90;;;;;;6254988;23;20027;-91
2022/07/24 06:11:23;;;;;;;12.38;7.38;;;17.40;99.90;;;;;;6220832;23;20019;-91
2022/07/24 06:14:04;;;;;;;11.35;6.82;;;17.50;99.90;;;;;;6219734;23;20035;-91
2022/07/24 06:16:30;;;;;;;13.07;7.80;;;17.70;99.90;;;;;;6220098;23;20069;-91
2022/07/24 06:19:08;;;;;;;13.18;7.32;;;17.40;99.90;;;;;;6220076;23;20047;-90
2022/07/24 06:21:34;;;;;;;13.00;7.63;;;17.20;99.90;;;;;;6218975;23;20336;-85
2022/07/24 06:24:11;;;;;;;12.55;7.63;;;18.50;99.90;;;;;;6218965;23;20068;-85
2022/07/24 06:26:55;;;;;;;12.68;7.40;;;18.00;99.90;;;;;;6247109;23;20020;-85
2022/07/24 06:29:20;;;;;;;12.15;7.47;;;17.90;99.90;;;;;;6219157;23;20020;-84
2022/07/24 06:31:55;;;;;;;13.23;7.65;;;18.50;99.90;;;;;;6246591;23;20091;-84
2022/07/24 06:34:23;;;;;;;14.00;8.00;;;18.10;99.90;;;;;;6220027;23;20020;-86
2022/07/24 06:36:58;;;;;;;13.30;7.70;;;18.20;99.90;;;;;;6218454;23;20020;-84
2022/07/24 06:39:42;;;;;;;13.38;7.80;;;18.80;99.90;;;;;;6246794;23;20016;-83
2022/07/24 06:42:26;;;;;;;15.48;8.05;;;18.50;99.90;;;;;;6219513;23;20099;-84
2022/07/24 06:44:51;;;;;;;;;;;19.20;99.90;;;;;;6246370;23;20016;-84
2022/07/24 06:47:17;;;;;;;12.50;7.95;;;19.20;99.90;;;;;;6219966;23;19922;-84
2022/07/24 06:50:00;;;;;;;13.45;7.93;;;18.90;99.90;;;;;;6246549;23;20017;-85
2022/07/24 06:52:26;;;;;;;15.30;8.00;;;19.10;99.90;;;;;;6229133;23;20445;-84
2022/07/24 06:54:52;;;;;;;14.82;8.27;;;19.10;99.90;;;;;;6247564;23;20018;-83
2022/07/24 06:57:20;;;;;;;12.95;7.72;;;19.40;99.90;;;;;;6220182;23;20016;-84
2022/07/24 06:59:46;;;;;;;15.05;8.48;;;19.50;99.90;;;;;;6219543;23;20091;-84
2022/07/24 07:02:12;;;;;;;16.10;8.82;;;19.50;99.90;;;;;;6245709;23;20058;-84
2022/07/24 07:04:56;;;;;;;15.27;8.25;;;20.00;99.90;;;;;;6218163;23;20020;-87
2022/07/24 07:07:21;;;;;;;16.02;9.15;;;20.40;99.90;;;;;;6246889;23;20015;-85
2022/07/24 07:09:47;;;;;;;15.95;9.82;;;20.40;99.90;;;;;;6231907;23;20016;-85
2022/07/24 07:12:13;;;;;;;15.95;9.45;;;20.50;99.90;;;;;;6217784;23;20016;-85
2022/07/24 07:14:41;;;;;;;18.00;9.63;;;20.60;99.90;;;;;;6245519;23;20008;-85
2022/07/24 07:17:07;;;;;;;17.02;10.00;;;20.80;99.90;;;;;;6246779;23;20016;-84
2022/07/24 07:19:32;;;;;;;15.15;9.93;;;21.30;99.90;;;;;;6217864;23;20340;-85
2022/07/24 07:21:58;;;;;;;15.73;9.65;;;21.60;99.90;;;;;;6244852;23;20088;-82
2022/07/24 07:24:24;;;;;;;16.73;11.10;;;21.00;99.90;;;;;;6218636;23;20020;-82
2022/07/24 07:26:49;;;;;;;17.13;10.50;;;21.20;99.90;;;;;;6244038;23;20515;-84
2022/07/24 07:29:15;;;;;;;16.20;10.93;;;21.40;99.90;;;;;;6218236;23;20014;-84
2022/07/24 07:31:41;;;;;;;16.17;10.90;;;21.50;99.90;;;;;;6218569;23;20074;-82
2022/07/24 07:34:06;;;;;;;17.27;11.15;;;21.50;99.90;;;;;;6243804;23;20442;-83
2022/07/24 07:36:32;;;;;;;15.38;10.65;;;21.60;99.90;;;;;;6245530;23;20073;-82
2022/07/24 07:38:58;;;;;;;21.98;12.05;;;21.70;99.90;;;;;;6216713;23;20433;-82
2022/07/24 07:41:24;;;;;;;17.90;11.00;;;21.70;99.90;;;;;;6245278;23;20023;-82
2022/07/24 07:43:50;;;;;;;16.80;11.13;;;21.80;99.90;;;;;;6217843;23;20091;-82
2022/07/24 07:46:16;;;;;;;17.83;11.50;;;21.90;99.90;;;;;;6217469;23;20070;-83
2022/07/24 07:48:42;;;;;;;17.75;11.38;;;22.00;99.90;;;;;;6218219;23;20348;-82
2022/07/24 07:51:07;;;;;;;15.95;11.02;;;22.50;99.90;;;;;;6245142;23;20019;-81
2022/07/24 07:53:33;;;;;;;19.65;11.30;;;22.10;99.90;;;;;;6244262;23;20012;-81
2022/07/24 07:55:59;;;;;;;16.75;11.68;;;22.10;99.90;;;;;;6215088;23;20020;-81
2022/07/24 07:58:26;;;;;;;18.40;11.38;;;22.20;99.90;;;;;;6217839;23;20071;-81
2022/07/24 08:00:52;;;;;;;19.90;11.52;;;22.20;99.90;;;;;;6244140;23;20065;-81
2022/07/24 08:03:17;;;;;;;19.45;12.32;;;22.20;99.90;;;;;;6218257;23;20091;-81
2022/07/24 08:05:43;;;;;;;17.17;12.10;;;22.40;99.90;;;;;;6223053;23;20369;-81
2022/07/24 08:08:09;;;;;;;17.55;11.73;;;22.50;99.90;;;;;;6247159;23;20035;-81
2022/07/24 08:10:34;;;;;;;17.30;11.63;;;22.60;99.90;;;;;;6244079;23;20108;-83
2022/07/24 08:13:00;;;;;;;18.15;11.32;;;22.70;99.90;;;;;;6245532;23;20040;-83
2022/07/24 08:15:25;;;;;;;18.17;12.18;;;22.80;99.90;;;;;;6245362;23;20432;-84
2022/07/24 08:17:53;;;;;;;18.33;12.77;;;22.70;99.90;;;;;;6219726;23;20012;-84
2022/07/24 08:20:19;;;;;;;18.27;11.95;;;22.90;99.90;;;;;;6219853;23;20378;-83
2022/07/24 08:22:45;;;;;;;19.13;12.80;;;23.00;99.90;;;;;;6218601;23;20082;-84
2022/07/24 08:25:11;;;;;;;17.73;12.27;;;23.00;99.90;;;;;;6254802;23;20073;-86
2022/07/24 08:27:37;;;;;;;18.42;12.63;;;23.10;99.90;;;;;;6224425;23;20332;-84
2022/07/24 08:30:04;;;;;;;17.48;12.50;;;23.40;99.90;;;;;;6219089;23;20403;-84
2022/07/24 08:32:30;;;;;;;18.08;13.43;;;23.20;99.90;;;;;;6246612;23;20404;-83
2022/07/24 08:34:58;;;;;;;18.48;13.27;;;23.20;99.90;;;;;;6246970;23;20027;-87
2022/07/24 08:37:24;;;;;;;17.60;11.93;;;23.40;99.90;;;;;;6218967;23;20017;-84
2022/07/24 08:39:50;;;;;;;19.58;12.63;;;23.60;99.90;;;;;;6219581;23;20095;-84
2022/07/24 08:42:15;;;;;;;20.42;12.20;;;23.50;99.90;;;;;;6218546;23;20024;-83
2022/07/24 08:44:41;;;;;;;17.70;11.60;;;23.60;99.90;;;;;;6245526;23;20016;-83
2022/07/24 08:47:10;;;;;;;16.00;10.60;;;23.80;99.90;;;;;;6219532;23;20027;-85
2022/07/24 08:49:36;;;;;;;16.25;11.00;;;23.90;99.90;;;;;;6245253;23;20456;-84
2022/07/24 08:52:07;;;;;;;18.02;11.68;;;24.10;99.90;;;;;;6218588;23;20482;-83
2022/07/24 08:54:34;;;;;;;15.57;10.63;;;24.10;99.90;;;;;;6247087;23;20013;-84
2022/07/24 08:57:00;;;;;;;16.08;10.65;;;24.10;99.90;;;;;;6244710;23;20016;-84
2022/07/24 08:59:26;;;;;;;14.07;9.15;;;24.10;99.90;;;;;;6246469;23;20016;-83
2022/07/24 09:01:52;;;;;;;15.15;8.80;;;24.20;99.90;;;;;;6246086;23;20329;-83
2022/07/24 09:04:37;;;;;;;16.00;9.52;;;24.60;99.90;;;;;;6218849;23;20043;-83
2022/07/24 09:07:07;;;;;;;15.80;8.48;;;24.60;99.90;;;;;;6218660;23;20020;-83
2022/07/24 09:09:35;;;;;;;12.60;7.18;;;24.60;99.90;;;;;;6245597;23;20375;-83
2022/07/24 09:12:12;;;;;;;12.73;7.55;;;24.40;99.90;;;;;;6217901;23;20448;-84
2022/07/24 09:14:40;;;;;;;14.38;8.63;;;24.50;99.90;;;;;;6247798;23;20329;-80
2022/07/24 09:17:15;;;;;;;12.93;7.30;;;24.60;99.90;;;;;;6216488;23;20031;-83
2022/07/24 09:19:56;;;;;;;15.45;7.30;;;24.80;99.90;;;;;;6216487;23;20012;-83
2022/07/24 09:22:32;;;;;;;11.77;6.68;;;24.90;99.90;;;;;;6219160;23;20437;-83
2022/07/24 09:25:04;;;;;;;12.65;6.90;;;25.10;99.90;;;;;;6218321;23;20020;-83
2022/07/24 09:27:29;;;;;;;12.23;6.60;;;25.10;99.90;;;;;;6219232;23;20015;-83
2022/07/24 09:29:55;;;;;;;12.07;6.80;;;25.50;99.90;;;;;;6245959;23;20332;-81
2022/07/24 09:32:25;;;;;;;11.40;6.20;;;25.50;99.90;;;;;;6218213;23;20415;-81
2022/07/24 09:34:52;;;;;;;12.13;6.57;;;25.60;99.90;;;;;;6245547;23;20019;-82
2022/07/24 09:37:19;;;;;;;11.20;5.72;;;25.40;99.90;;;;;;6246282;23;20023;-84
2022/07/24 09:39:45;;;;;;;10.95;5.80;;;25.40;99.90;;;;;;6218027;23;20016;-83
2022/07/24 09:42:11;;;;;;;9.60;4.75;;;25.40;99.90;;;;;;6246051;23;20065;-84
2022/07/24 09:44:37;;;;;;;10.13;5.10;;;25.40;99.90;;;;;;6218965;23;20020;-84
2022/07/24 09:47:09;;;;;;;12.77;5.18;;;25.40;99.90;;;;;;6218116;23;20337;-87
2022/07/24 09:49:44;;;;;;;9.70;4.68;;;25.30;99.90;;;;;;6245280;23;20072;-89
2022/07/24 09:52:18;;;;;;;9.70;4.05;;;25.20;99.90;;;;;;6246196;23;20039;-89
2022/07/24 09:54:56;;;;;;;9.88;4.93;;;25.40;99.90;;;;;;6218677;23;20107;-86
2022/07/24 09:57:40;;;;;;;9.65;4.75;;;25.70;99.90;;;;;;6246893;23;20088;-87
2022/07/24 10:00:07;;;;;;;12.02;5.55;;;25.80;99.90;;;;;;6221208;23;20005;-89
2022/07/24 10:02:45;;;;;;;10.35;5.07;;;26.00;99.90;;;;;;6258286;22;20016;-89
2022/07/24 10:05:35;;;;;;;11.02;4.90;;;25.90;99.90;;;;;;6246954;23;20063;-88
2022/07/24 10:08:17;;;;;;;9.55;5.03;;;26.00;99.90;;;;;;6218896;23;20099;-86
2022/07/24 10:10:44;;;;;;;8.80;4.43;;;26.20;99.90;;;;;;6246549;23;20463;-87
2022/07/24 10:13:27;;;;;;;9.73;4.50;;;26.30;99.90;;;;;;6220264;23;20027;-87
2022/07/24 10:16:15;;;;;;;9.02;4.47;;;26.40;99.90;;;;;;6219139;23;20043;-87
2022/07/24 10:19:14;;;;;;;10.20;4.43;;;26.40;99.90;;;;;;6250438;23;20031;-87
2022/07/24 10:22:14;;;;;;;9.40;4.30;;;26.50;99.40;;;;;;6219821;23;20012;-86
2022/07/24 10:24:47;;;;;;;8.13;3.78;;;26.90;99.70;;;;;;6246770;23;20044;-86
2022/07/24 10:27:56;;;;;;;7.90;3.70;;;26.20;98.80;;;;;;6221649;23;20012;-86
2022/07/24 10:30:34;;;;;;;8.05;3.80;;;26.80;98.90;;;;;;6222179;23;20356;-88
2022/07/24 10:32:59;;;;;;;8.43;3.55;;;26.70;98.00;;;;;;6256422;23;20048;-87
2022/07/24 10:35:44;;;;;;;8.63;3.35;;;26.80;99.00;;;;;;6247466;23;20028;-87
2022/07/24 10:38:32;;;;;;;7.95;3.35;;;26.80;97.80;;;;;;6219128;23;20071;-87
2022/07/24 10:44:14;;;;;;;7.90;3.38;;;27.00;97.90;;;;;;6217276;23;20086;-87
2022/07/24 10:47:06;;;;;;;9.00;3.30;;;27.20;96.50;;;;;;6210824;23;20016;-84
2022/07/24 10:49:57;;;;;;;9.07;3.53;;;27.10;95.60;;;;;;6218076;23;20152;-87
2022/07/24 10:52:38;;;;;;;7.32;3.03;;;27.40;96.70;;;;;;6219588;23;20018;-86
2022/07/24 10:55:29;;;;;;;7.85;3.00;;;27.40;95.80;;;;;;6218353;23;20038;-87
2022/07/24 10:58:15;;;;;;;11.02;3.33;;;27.50;95.80;;;;;;6218336;23;20047;-86
2022/07/24 11:00:54;;;;;;;7.40;3.13;;;27.50;95.30;;;;;;6219120;23;20463;-87
2022/07/24 11:03:22;;;;;;;7.85;3.35;;;27.70;95.10;;;;;;6249515;23;20019;-86
2022/07/24 11:06:05;;;;;;;6.88;2.70;;;27.70;96.40;;;;;;6247414;23;20067;-87
2022/07/24 11:08:49;;;;;;;8.80;3.10;;;28.00;94.40;;;;;;6222262;23;20022;-85
2022/07/24 11:11:39;;;;;;;6.78;2.75;;;28.20;95.50;;;;;;6247127;23;20000;-90
2022/07/24 11:14:04;;;;;;;8.82;2.70;;;28.40;95.20;;;;;;6247466;23;20039;-90
2022/07/24 11:16:39;;;;;;;7.30;2.90;;;28.30;94.00;;;;;;6229112;23;20009;-87
2022/07/24 11:19:05;;;;;;;7.68;2.72;;;28.40;93.70;;;;;;6220191;23;20020;-86
2022/07/24 11:22:03;;;;;;;8.20;2.70;;;28.40;94.50;;;;;;6246508;23;20047;-88
2022/07/24 11:25:18;;;;;;;7.53;2.53;;;28.40;93.10;;;;;;6219846;23;20020;-87
2022/07/24 11:27:49;;;;;;;7.88;2.50;;;28.00;93.40;;;;;;6219674;23;20020;-89
2022/07/24 11:30:16;;;;;;;6.57;2.75;;;27.90;94.30;;;;;;6219053;23;20055;-86
2022/07/24 11:32:56;;;;;;;7.28;2.78;;;27.70;94.00;;;;;;6246003;23;20012;-88
2022/07/24 11:35:38;;;;;;;7.88;2.90;;;27.80;94.30;;;;;;6247665;23;20016;-90
2022/07/24 11:38:24;;;;;;;6.72;2.60;;;27.60;93.50;;;;;;6234289;23;20102;-88
2022/07/24 11:40:50;;;;;;;6.75;2.60;;;27.50;94.60;;;;;;6247480;23;20095;-88
2022/07/24 11:43:33;;;;;;;7.60;2.83;;;27.60;95.20;;;;;;6248190;23;20039;-90
2022/07/24 11:46:03;;;;;;;6.90;2.60;;;27.80;94.30;;;;;;6220446;23;20018;-86
2022/07/24 11:48:37;;;;;;;7.13;2.88;;;27.80;94.50;;;;;;6219723;23;20023;-85
2022/07/24 11:51:12;;;;;;;7.82;2.70;;;28.40;93.80;;;;;;6220426;23;20046;-86
2022/07/24 11:53:44;;;;;;;7.63;2.90;;;28.30;94.50;;;;;;6220426;23;20012;-85
2022/07/24 11:56:30;;;;;;;6.85;2.58;;;28.40;93.50;;;;;;6221174;23;20074;-85
2022/07/24 11:58:56;;;;;;;6.60;2.60;;;28.80;92.90;;;;;;6247046;23;20016;-85
2022/07/24 12:01:28;;;;;;;7.30;2.78;;;28.80;93.90;;;;;;6220055;23;20062;-86
2022/07/24 12:04:09;;;;;;;6.90;2.53;;;28.80;92.70;;;;;;6248106;23;20048;-84
2022/07/24 12:06:44;;;;;;;7.10;2.78;;;28.80;93.20;;;;;;6220243;23;20016;-84
2022/07/24 12:09:28;;;;;;;7.05;2.80;;;28.80;93.60;;;;;;6221847;23;20403;-84
2022/07/24 12:11:54;;;;;;;7.50;2.95;;;29.00;93.10;;;;;;6221873;23;20356;-85
2022/07/24 12:14:21;;;;;;;7.10;2.70;;;29.20;93.30;;;;;;6248356;23;20016;-85
2022/07/24 12:17:11;;;;;;;7.63;2.90;;;29.20;93.30;;;;;;6222112;23;20016;-86
2022/07/24 12:19:51;;;;;;;7.88;3.03;;;29.30;93.20;;;;;;6248917;23;20020;-85
2022/07/24 12:22:18;;;;;;;7.40;2.80;;;29.50;91.70;;;;;;6247067;23;20097;-84
2022/07/24 12:24:57;;;;;;;6.95;2.78;;;29.60;92.90;;;;;;6247435;23;20020;-85
2022/07/24 12:27:45;;;;;;;8.88;3.10;;;29.70;91.60;;;;;;6219548;23;20019;-85
2022/07/24 12:30:31;;;;;;;6.97;3.03;;;29.70;91.50;;;;;;6248286;23;20448;-85
2022/07/24 12:33:07;;;;;;;6.93;3.00;;;29.60;91.10;;;;;;6219194;23;20094;-85
2022/07/24 12:35:55;;;;;;;7.68;3.15;;;29.70;91.70;;;;;;6219175;23;20024;-85
2022/07/24 12:39:29;;;;;;;7.78;2.92;;;29.80;91.50;;;;;;6220154;23;20020;-85
2022/07/24 12:42:15;;;;;;;8.45;3.30;;;29.90;91.30;;;;;;6247174;23;20020;-85
2022/07/24 12:45:08;;;;;;;7.35;2.88;;;29.80;91.00;;;;;;6219043;23;20024;-85
2022/07/24 12:48:24;;;;;;;8.02;3.30;;;29.80;90.30;;;;;;6191075;23;20020;-85
2022/07/24 12:51:23;;;;;;;7.28;2.92;;;29.80;90.10;;;;;;6219522;23;20016;-85
2022/07/24 12:54:01;;;;;;;7.60;3.00;;;29.70;91.20;;;;;;6216800;23;20074;-85
2022/07/24 12:56:33;;;;;;;7.30;3.00;;;30.10;91.10;;;;;;6246174;23;20463;-87
2022/07/24 12:59:50;;;;;;;7.55;3.08;;;30.30;89.60;;;;;;6219642;23;20094;-88
2022/07/24 13:02:34;;;;;;;8.07;2.80;;;30.10;89.70;;;;;;6225235;23;20067;-88
2022/07/24 13:05:09;;;;;;;7.25;3.17;;;30.10;89.70;;;;;;6252874;23;20027;-88
2022/07/24 13:07:34;;;;;;;7.20;3.08;;;30.20;90.90;;;;;;6249735;23;20020;-88
2022/07/24 13:10:09;;;;;;;7.30;3.08;;;30.00;90.70;;;;;;6221719;23;20023;-89
2022/07/24 13:12:47;;;;;;;7.88;3.00;;;30.20;89.90;;;;;;6257920;22;20027;-88